Perseverance — WDD5594 — position and weather

sailwx.info

Track history (hours):
 
Tides and Currents Weather Stations Pressure Air Temp Water Temp Dewpoint Dewpoint Depression Visibility Wind Speed Wind Dir Waves Ship Positions

Perseverance

Owner: Cooper, Mark E, Toledo, OR. More information available from US FCC via Universal Licensing System and Coast Guard Vessel Documentation Center.

Last reported at 2016-Jul-20 12:15 UTC. Time now 2016-Jul-24 10:39 UTC.
Position N 44°42' W 125°05'.

Type: Fishing. MMSI: 367618000.

Date/timePositionNaut miles runAvg speedWind from/ knotsBaromVisibWave heightAir tempDewpointWater temp
2016-Jul-20 12:15N 44°42' W 125°05'21 5.8
2016-Jul-20 08:32N 44°39' W 124°35'13 0.3
2016-Jul-18 14:31N 44°53' W 124°37'3 0.8
2016-Jul-18 11:07N 44°51' W 124°34'8 4.3
2016-Jul-18 09:17N 44°48' W 124°24'73 1.5
2016-Jul-16 07:26N 43°37' W 124°44'9 9.2
2016-Jul-16 06:26N 43°45' W 124°38'19 9.0
2016-Jul-16 04:21N 44°02' W 124°27'26 9.0
2016-Jul-16 01:30N 44°25' W 124°13'14 0.8
2016-Jul-15 07:33N 44°26' W 124°32'6 5.8
2016-Jul-15 06:33N 44°23' W 124°39'6 5.7
2016-Jul-15 05:32N 44°20' W 124°46'6 5.4
2016-Jul-15 04:28N 44°17' W 124°53'3 2.8
2016-Jul-15 03:33N 44°19' W 124°51'0 0.4
2016-Jul-15 02:29N 44°20' W 124°51'2 2.6
2016-Jul-15 01:32N 44°18' W 124°54'0 0.4
2016-Jul-15 00:31N 44°18' W 124°54'3 3.0
2016-Jul-14 23:32N 44°20' W 124°51'3 3.2
2016-Jul-14 22:33N 44°23' W 124°50'3 3.3
2016-Jul-14 21:33N 44°26' W 124°48'3 2.6
2016-Jul-14 20:20N 44°23' W 124°50'2 2.1
2016-Jul-14 19:28N 44°25' W 124°48'6 1.9
2016-Jul-14 16:12N 44°19' W 124°52'1 1.3
2016-Jul-14 15:33N 44°20' W 124°51'3 3.0
2016-Jul-14 14:31N 44°22' W 124°50'4 3.1
2016-Jul-14 13:20N 44°26' W 124°48'4 2.1
2016-Jul-14 11:20N 44°27' W 124°42'0 0.3
2016-Jul-14 10:05N 44°27' W 124°42'7 4.2
2016-Jul-14 08:26N 44°30' W 124°33'4 4.7
2016-Jul-14 07:33N 44°31' W 124°28'5 4.7
2016-Jul-14 06:33N 44°33' W 124°22'  
Track history (hours):
 
Tides and Currents Weather Stations Pressure Air Temp Water Temp Dewpoint Dewpoint Depression Visibility Wind Speed Wind Dir Waves Ship Positions

Perseverance

Owner: Cooper, Mark E, Toledo, OR. More information available from US FCC via Universal Licensing System and Coast Guard Vessel Documentation Center.

Last reported at 2016-Jul-20 12:15 UTC. Time now 2016-Jul-24 10:39 UTC.
Position N 44°42' W 125°05'.

Type: Fishing. MMSI: 367618000.

Date/timePositionNaut miles runAvg speedWind from/ knotsBaromVisibWave heightAir tempDewpointWater temp
2016-Jul-20 12:15N 44°42' W 125°05'21 5.8
2016-Jul-20 08:32N 44°39' W 124°35'13 0.3
2016-Jul-18 14:31N 44°53' W 124°37'3 0.8
2016-Jul-18 11:07N 44°51' W 124°34'8 4.3
2016-Jul-18 09:17N 44°48' W 124°24'73 1.5
2016-Jul-16 07:26N 43°37' W 124°44'9 9.2
2016-Jul-16 06:26N 43°45' W 124°38'19 9.0
2016-Jul-16 04:21N 44°02' W 124°27'26 9.0
2016-Jul-16 01:30N 44°25' W 124°13'14 0.8
2016-Jul-15 07:33N 44°26' W 124°32'6 5.8
2016-Jul-15 06:33N 44°23' W 124°39'6 5.7
2016-Jul-15 05:32N 44°20' W 124°46'6 5.4
2016-Jul-15 04:28N 44°17' W 124°53'3 2.8
2016-Jul-15 03:33N 44°19' W 124°51'0 0.4
2016-Jul-15 02:29N 44°20' W 124°51'2 2.6
2016-Jul-15 01:32N 44°18' W 124°54'0 0.4
2016-Jul-15 00:31N 44°18' W 124°54'3 3.0
2016-Jul-14 23:32N 44°20' W 124°51'3 3.2
2016-Jul-14 22:33N 44°23' W 124°50'3 3.3
2016-Jul-14 21:33N 44°26' W 124°48'3 2.6
2016-Jul-14 20:20N 44°23' W 124°50'2 2.1
2016-Jul-14 19:28N 44°25' W 124°48'6 1.9
2016-Jul-14 16:12N 44°19' W 124°52'1 1.3
2016-Jul-14 15:33N 44°20' W 124°51'3 3.0
2016-Jul-14 14:31N 44°22' W 124°50'4 3.1
2016-Jul-14 13:20N 44°26' W 124°48'4 2.1
2016-Jul-14 11:20N 44°27' W 124°42'0 0.3
2016-Jul-14 10:05N 44°27' W 124°42'7 4.2
2016-Jul-14 08:26N 44°30' W 124°33'4 4.7
2016-Jul-14 07:33N 44°31' W 124°28'5 4.7
2016-Jul-14 06:33N 44°33' W 124°22'  

Dump ship's entire track history